sensor_id;sensor_type;location;lat;lon;timestamp;P1;durP1;ratioP1;P2;durP2;ratioP2
12770;SDS011;6449;47.666;9.160;2023-06-22T00:03:09;4.05;;;2.75;;
12770;SDS011;6449;47.666;9.160;2023-06-22T00:08:03;4.25;;;3.05;;
12770;SDS011;6449;47.666;9.160;2023-06-22T00:12:57;3.22;;;2.80;;
12770;SDS011;6449;47.666;9.160;2023-06-22T00:17:52;3.65;;;2.72;;
12770;SDS011;6449;47.666;9.160;2023-06-22T00:22:45;5.10;;;2.35;;
12770;SDS011;6449;47.666;9.160;2023-06-22T00:27:39;4.80;;;3.15;;
12770;SDS011;6449;47.666;9.160;2023-06-22T00:32:32;6.65;;;2.97;;
12770;SDS011;6449;47.666;9.160;2023-06-22T00:37:27;7.00;;;3.17;;
12770;SDS011;6449;47.666;9.160;2023-06-22T00:42:21;6.53;;;2.65;;
12770;SDS011;6449;47.666;9.160;2023-06-22T00:47:15;3.70;;;3.00;;
12770;SDS011;6449;47.666;9.160;2023-06-22T00:52:10;5.18;;;2.92;;
12770;SDS011;6449;47.666;9.160;2023-06-22T00:57:06;3.78;;;3.03;;
12770;SDS011;6449;47.666;9.160;2023-06-22T01:02:02;4.05;;;2.88;;
12770;SDS011;6449;47.666;9.160;2023-06-22T01:06:57;8.43;;;3.75;;
12770;SDS011;6449;47.666;9.160;2023-06-22T01:12:06;3.97;;;3.25;;
12770;SDS011;6449;47.666;9.160;2023-06-22T01:17:03;6.07;;;3.22;;
12770;SDS011;6449;47.666;9.160;2023-06-22T01:22:01;4.70;;;3.33;;
12770;SDS011;6449;47.666;9.160;2023-06-22T01:27:00;5.95;;;2.90;;
12770;SDS011;6449;47.666;9.160;2023-06-22T01:32:14;4.60;;;3.03;;
12770;SDS011;6449;47.666;9.160;2023-06-22T01:37:09;5.25;;;3.13;;
12770;SDS011;6449;47.666;9.160;2023-06-22T01:42:03;5.05;;;2.95;;
12770;SDS011;6449;47.666;9.160;2023-06-22T01:46:57;6.63;;;3.03;;
12770;SDS011;6449;47.666;9.160;2023-06-22T01:51:53;5.13;;;3.13;;
12770;SDS011;6449;47.666;9.160;2023-06-22T01:56:46;4.30;;;2.67;;
12770;SDS011;6449;47.666;9.160;2023-06-22T02:01:41;6.25;;;3.17;;
12770;SDS011;6449;47.666;9.160;2023-06-22T02:06:43;3.75;;;2.83;;
12770;SDS011;6449;47.666;9.160;2023-06-22T02:11:45;2.63;;;2.42;;
12770;SDS011;6449;47.666;9.160;2023-06-22T02:16:43;5.03;;;2.67;;
12770;SDS011;6449;47.666;9.160;2023-06-22T02:21:37;7.07;;;2.67;;
12770;SDS011;6449;47.666;9.160;2023-06-22T02:26:31;4.65;;;2.58;;
12770;SDS011;6449;47.666;9.160;2023-06-22T02:31:27;5.00;;;3.17;;
12770;SDS011;6449;47.666;9.160;2023-06-22T02:36:22;7.13;;;2.70;;
12770;SDS011;6449;47.666;9.160;2023-06-22T02:41:18;5.18;;;2.83;;
12770;SDS011;6449;47.666;9.160;2023-06-22T02:46:11;4.88;;;3.15;;
12770;SDS011;6449;47.666;9.160;2023-06-22T02:51:06;5.57;;;2.95;;
12770;SDS011;6449;47.666;9.160;2023-06-22T02:56:01;4.68;;;3.33;;
12770;SDS011;6449;47.666;9.160;2023-06-22T03:00:56;3.78;;;2.58;;
12770;SDS011;6449;47.666;9.160;2023-06-22T03:05:56;4.25;;;3.03;;
12770;SDS011;6449;47.666;9.160;2023-06-22T03:10:50;5.03;;;2.88;;
12770;SDS011;6449;47.666;9.160;2023-06-22T03:15:44;6.43;;;2.67;;
12770;SDS011;6449;47.666;9.160;2023-06-22T03:20:37;3.97;;;2.65;;
12770;SDS011;6449;47.666;9.160;2023-06-22T03:25:31;4.47;;;3.20;;
12770;SDS011;6449;47.666;9.160;2023-06-22T03:30:26;11.75;;;3.45;;
12770;SDS011;6449;47.666;9.160;2023-06-22T03:35:20;5.75;;;3.22;;
12770;SDS011;6449;47.666;9.160;2023-06-22T03:40:14;5.93;;;3.05;;
12770;SDS011;6449;47.666;9.160;2023-06-22T03:45:08;6.53;;;3.63;;
12770;SDS011;6449;47.666;9.160;2023-06-22T03:50:04;5.15;;;3.45;;
12770;SDS011;6449;47.666;9.160;2023-06-22T03:54:59;4.90;;;2.88;;
12770;SDS011;6449;47.666;9.160;2023-06-22T03:59:53;5.47;;;3.42;;
12770;SDS011;6449;47.666;9.160;2023-06-22T04:04:49;3.47;;;2.30;;
12770;SDS011;6449;47.666;9.160;2023-06-22T04:09:44;4.13;;;2.85;;
12770;SDS011;6449;47.666;9.160;2023-06-22T04:14:37;3.63;;;2.80;;
12770;SDS011;6449;47.666;9.160;2023-06-22T04:19:31;4.50;;;2.60;;
12770;SDS011;6449;47.666;9.160;2023-06-22T04:24:24;5.18;;;2.95;;
12770;SDS011;6449;47.666;9.160;2023-06-22T04:29:19;5.10;;;2.53;;
12770;SDS011;6449;47.666;9.160;2023-06-22T04:34:20;6.47;;;3.47;;
12770;SDS011;6449;47.666;9.160;2023-06-22T04:39:14;4.40;;;3.00;;
12770;SDS011;6449;47.666;9.160;2023-06-22T04:44:11;6.38;;;2.83;;
12770;SDS011;6449;47.666;9.160;2023-06-22T04:49:07;3.72;;;2.50;;
12770;SDS011;6449;47.666;9.160;2023-06-22T04:54:02;7.97;;;3.00;;
12770;SDS011;6449;47.666;9.160;2023-06-22T04:58:57;4.88;;;2.92;;
12770;SDS011;6449;47.666;9.160;2023-06-22T05:03:50;4.55;;;3.15;;
12770;SDS011;6449;47.666;9.160;2023-06-22T05:08:48;5.10;;;3.58;;
12770;SDS011;6449;47.666;9.160;2023-06-22T05:13:42;6.03;;;3.60;;
12770;SDS011;6449;47.666;9.160;2023-06-22T05:18:35;10.45;;;4.30;;
12770;SDS011;6449;47.666;9.160;2023-06-22T05:23:28;4.75;;;3.10;;
12770;SDS011;6449;47.666;9.160;2023-06-22T05:28:23;5.10;;;3.63;;
12770;SDS011;6449;47.666;9.160;2023-06-22T05:33:17;5.63;;;3.50;;
12770;SDS011;6449;47.666;9.160;2023-06-22T05:38:10;5.13;;;3.20;;
12770;SDS011;6449;47.666;9.160;2023-06-22T05:43:03;4.97;;;3.40;;
12770;SDS011;6449;47.666;9.160;2023-06-22T05:47:58;5.70;;;3.83;;
12770;SDS011;6449;47.666;9.160;2023-06-22T05:52:53;3.70;;;3.05;;
12770;SDS011;6449;47.666;9.160;2023-06-22T05:57:46;3.78;;;3.05;;
12770;SDS011;6449;47.666;9.160;2023-06-22T06:02:39;9.68;;;3.50;;
12770;SDS011;6449;47.666;9.160;2023-06-22T06:07:37;6.28;;;2.97;;
12770;SDS011;6449;47.666;9.160;2023-06-22T06:12:30;7.50;;;3.75;;
12770;SDS011;6449;47.666;9.160;2023-06-22T06:17:23;5.05;;;3.00;;
12770;SDS011;6449;47.666;9.160;2023-06-22T06:22:17;6.00;;;3.20;;
12770;SDS011;6449;47.666;9.160;2023-06-22T06:27:13;5.07;;;3.10;;
12770;SDS011;6449;47.666;9.160;2023-06-22T06:32:07;5.47;;;3.13;;
12770;SDS011;6449;47.666;9.160;2023-06-22T06:37:01;5.70;;;3.65;;
12770;SDS011;6449;47.666;9.160;2023-06-22T06:41:55;5.78;;;3.25;;
12770;SDS011;6449;47.666;9.160;2023-06-22T06:46:50;5.40;;;3.25;;
12770;SDS011;6449;47.666;9.160;2023-06-22T06:51:45;7.15;;;3.30;;
12770;SDS011;6449;47.666;9.160;2023-06-22T06:56:39;5.47;;;3.13;;
12770;SDS011;6449;47.666;9.160;2023-06-22T07:01:39;4.50;;;2.70;;
12770;SDS011;6449;47.666;9.160;2023-06-22T07:06:34;6.22;;;2.95;;
12770;SDS011;6449;47.666;9.160;2023-06-22T07:11:27;5.40;;;3.20;;
12770;SDS011;6449;47.666;9.160;2023-06-22T07:16:21;3.65;;;2.55;;
12770;SDS011;6449;47.666;9.160;2023-06-22T07:21:15;5.47;;;3.63;;
12770;SDS011;6449;47.666;9.160;2023-06-22T07:26:24;3.63;;;2.70;;
12770;SDS011;6449;47.666;9.160;2023-06-22T07:31:18;5.15;;;2.65;;
12770;SDS011;6449;47.666;9.160;2023-06-22T07:36:12;4.15;;;2.97;;
12770;SDS011;6449;47.666;9.160;2023-06-22T07:41:06;6.90;;;3.88;;
12770;SDS011;6449;47.666;9.160;2023-06-22T07:46:01;3.88;;;2.90;;
12770;SDS011;6449;47.666;9.160;2023-06-22T07:50:54;4.75;;;2.90;;
12770;SDS011;6449;47.666;9.160;2023-06-22T07:55:48;6.95;;;3.50;;
12770;SDS011;6449;47.666;9.160;2023-06-22T08:00:42;6.35;;;3.45;;
12770;SDS011;6449;47.666;9.160;2023-06-22T08:05:36;7.13;;;3.75;;
12770;SDS011;6449;47.666;9.160;2023-06-22T08:10:30;3.83;;;3.15;;
12770;SDS011;6449;47.666;9.160;2023-06-22T08:15:27;4.18;;;2.80;;
12770;SDS011;6449;47.666;9.160;2023-06-22T08:20:21;4.13;;;2.63;;
12770;SDS011;6449;47.666;9.160;2023-06-22T08:25:16;8.93;;;3.40;;
12770;SDS011;6449;47.666;9.160;2023-06-22T08:30:10;4.15;;;2.70;;
12770;SDS011;6449;47.666;9.160;2023-06-22T08:35:04;5.95;;;2.83;;
12770;SDS011;6449;47.666;9.160;2023-06-22T08:40:00;6.15;;;3.15;;
12770;SDS011;6449;47.666;9.160;2023-06-22T08:44:58;4.53;;;3.35;;
12770;SDS011;6449;47.666;9.160;2023-06-22T08:49:51;4.13;;;3.10;;
12770;SDS011;6449;47.666;9.160;2023-06-22T08:54:50;5.18;;;3.30;;
12770;SDS011;6449;47.666;9.160;2023-06-22T09:00:37;5.95;;;3.72;;
12770;SDS011;6449;47.666;9.160;2023-06-22T09:05:31;4.93;;;3.30;;
12770;SDS011;6449;47.666;9.160;2023-06-22T09:10:24;4.93;;;3.60;;
12770;SDS011;6449;47.666;9.160;2023-06-22T09:15:20;6.60;;;3.45;;
12770;SDS011;6449;47.666;9.160;2023-06-22T09:20:15;5.65;;;3.28;;
12770;SDS011;6449;47.666;9.160;2023-06-22T09:25:09;6.78;;;3.40;;
12770;SDS011;6449;47.666;9.160;2023-06-22T09:30:03;4.95;;;3.15;;
12770;SDS011;6449;47.666;9.160;2023-06-22T09:34:58;4.78;;;3.42;;
12770;SDS011;6449;47.666;9.160;2023-06-22T09:39:59;5.60;;;3.03;;
12770;SDS011;6449;47.666;9.160;2023-06-22T09:44:52;7.00;;;3.63;;
12770;SDS011;6449;47.666;9.160;2023-06-22T09:49:46;7.45;;;3.50;;
12770;SDS011;6449;47.666;9.160;2023-06-22T09:54:39;7.65;;;3.33;;
12770;SDS011;6449;47.666;9.160;2023-06-22T09:59:34;6.93;;;3.40;;
12770;SDS011;6449;47.666;9.160;2023-06-22T10:04:27;4.82;;;3.38;;
12770;SDS011;6449;47.666;9.160;2023-06-22T10:09:21;6.22;;;3.22;;
12770;SDS011;6449;47.666;9.160;2023-06-22T10:14:15;3.88;;;3.03;;
12770;SDS011;6449;47.666;9.160;2023-06-22T10:19:10;6.30;;;3.35;;
12770;SDS011;6449;47.666;9.160;2023-06-22T10:24:03;5.72;;;3.70;;
12770;SDS011;6449;47.666;9.160;2023-06-22T10:28:58;5.40;;;3.28;;
12770;SDS011;6449;47.666;9.160;2023-06-22T10:33:57;5.07;;;3.53;;
12770;SDS011;6449;47.666;9.160;2023-06-22T10:38:51;5.97;;;3.28;;
12770;SDS011;6449;47.666;9.160;2023-06-22T10:43:46;6.03;;;3.45;;
12770;SDS011;6449;47.666;9.160;2023-06-22T10:48:43;4.78;;;3.28;;
12770;SDS011;6449;47.666;9.160;2023-06-22T10:54:59;3.17;;;2.80;;
12770;SDS011;6449;47.666;9.160;2023-06-22T11:05:17;3.17;;;2.88;;
12770;SDS011;6449;47.666;9.160;2023-06-22T11:10:47;8.23;;;3.70;;
12770;SDS011;6449;47.666;9.160;2023-06-22T11:15:53;4.47;;;3.13;;
12770;SDS011;6449;47.666;9.160;2023-06-22T11:21:00;8.38;;;3.28;;
12770;SDS011;6449;47.666;9.160;2023-06-22T11:26:17;4.30;;;3.45;;
12770;SDS011;6449;47.666;9.160;2023-06-22T11:31:16;6.32;;;3.30;;
12770;SDS011;6449;47.666;9.160;2023-06-22T11:37:26;4.63;;;3.17;;
12770;SDS011;6449;47.666;9.160;2023-06-22T11:43:36;5.32;;;4.10;;
12770;SDS011;6449;47.666;9.160;2023-06-22T11:48:31;8.23;;;3.88;;
12770;SDS011;6449;47.666;9.160;2023-06-22T11:53:32;6.28;;;4.03;;
12770;SDS011;6449;47.666;9.160;2023-06-22T11:58:27;6.30;;;3.35;;
12770;SDS011;6449;47.666;9.160;2023-06-22T12:03:22;5.00;;;3.60;;
12770;SDS011;6449;47.666;9.160;2023-06-22T12:08:15;7.88;;;4.45;;
12770;SDS011;6449;47.666;9.160;2023-06-22T12:13:10;9.65;;;4.82;;
12770;SDS011;6449;47.666;9.160;2023-06-22T12:18:11;5.93;;;3.88;;
12770;SDS011;6449;47.666;9.160;2023-06-22T12:23:16;7.25;;;4.00;;
12770;SDS011;6449;47.666;9.160;2023-06-22T12:28:11;7.03;;;3.67;;
12770;SDS011;6449;47.666;9.160;2023-06-22T12:33:07;5.80;;;3.75;;
12770;SDS011;6449;47.666;9.160;2023-06-22T12:38:00;9.05;;;4.43;;
12770;SDS011;6449;47.666;9.160;2023-06-22T12:42:56;4.65;;;3.65;;
12770;SDS011;6449;47.666;9.160;2023-06-22T12:47:49;5.18;;;3.47;;
12770;SDS011;6449;47.666;9.160;2023-06-22T12:52:43;5.38;;;3.35;;
12770;SDS011;6449;47.666;9.160;2023-06-22T12:57:36;6.50;;;3.55;;
12770;SDS011;6449;47.666;9.160;2023-06-22T13:02:34;7.05;;;3.40;;
12770;SDS011;6449;47.666;9.160;2023-06-22T13:07:28;4.43;;;3.25;;
12770;SDS011;6449;47.666;9.160;2023-06-22T13:12:21;5.65;;;3.03;;
12770;SDS011;6449;47.666;9.160;2023-06-22T13:17:15;4.53;;;3.50;;
12770;SDS011;6449;47.666;9.160;2023-06-22T13:22:25;3.90;;;3.28;;
12770;SDS011;6449;47.666;9.160;2023-06-22T13:27:21;5.85;;;3.70;;
12770;SDS011;6449;47.666;9.160;2023-06-22T13:32:14;7.25;;;3.67;;
12770;SDS011;6449;47.666;9.160;2023-06-22T13:37:08;6.97;;;3.65;;
12770;SDS011;6449;47.666;9.160;2023-06-22T13:42:03;6.03;;;3.42;;
12770;SDS011;6449;47.666;9.160;2023-06-22T13:46:57;7.93;;;3.22;;
12770;SDS011;6449;47.666;9.160;2023-06-22T13:51:51;6.43;;;3.50;;
12770;SDS011;6449;47.666;9.160;2023-06-22T13:56:44;6.13;;;3.33;;
12770;SDS011;6449;47.666;9.160;2023-06-22T14:01:39;3.65;;;3.03;;
12770;SDS011;6449;47.666;9.160;2023-06-22T14:06:33;5.15;;;2.90;;
12770;SDS011;6449;47.666;9.160;2023-06-22T14:11:26;4.57;;;3.10;;
12770;SDS011;6449;47.666;9.160;2023-06-22T14:16:19;4.75;;;1.83;;
12770;SDS011;6449;47.666;9.160;2023-06-22T14:21:14;5.20;;;2.25;;
12770;SDS011;6449;47.666;9.160;2023-06-22T14:26:08;3.55;;;2.05;;
12770;SDS011;6449;47.666;9.160;2023-06-22T14:31:01;2.38;;;1.90;;
12770;SDS011;6449;47.666;9.160;2023-06-22T14:35:55;4.20;;;1.95;;
12770;SDS011;6449;47.666;9.160;2023-06-22T14:40:49;3.20;;;2.00;;
12770;SDS011;6449;47.666;9.160;2023-06-22T14:46:03;5.20;;;2.17;;
12770;SDS011;6449;47.666;9.160;2023-06-22T14:50:56;4.03;;;2.20;;
12770;SDS011;6449;47.666;9.160;2023-06-22T14:55:53;4.05;;;1.95;;
12770;SDS011;6449;47.666;9.160;2023-06-22T15:00:47;4.18;;;1.55;;
12770;SDS011;6449;47.666;9.160;2023-06-22T15:05:41;3.75;;;1.63;;
12770;SDS011;6449;47.666;9.160;2023-06-22T15:10:34;2.90;;;1.65;;
12770;SDS011;6449;47.666;9.160;2023-06-22T15:15:30;6.50;;;1.90;;
12770;SDS011;6449;47.666;9.160;2023-06-22T15:20:25;6.25;;;2.42;;
12770;SDS011;6449;47.666;9.160;2023-06-22T15:25:18;2.95;;;1.83;;
12770;SDS011;6449;47.666;9.160;2023-06-22T15:30:12;5.43;;;1.65;;
12770;SDS011;6449;47.666;9.160;2023-06-22T15:35:07;4.85;;;2.15;;
12770;SDS011;6449;47.666;9.160;2023-06-22T15:40:00;5.47;;;2.00;;
12770;SDS011;6449;47.666;9.160;2023-06-22T15:44:54;2.88;;;2.17;;
12770;SDS011;6449;47.666;9.160;2023-06-22T15:49:48;3.55;;;1.83;;
12770;SDS011;6449;47.666;9.160;2023-06-22T15:54:43;2.20;;;1.50;;
12770;SDS011;6449;47.666;9.160;2023-06-22T15:59:37;5.85;;;1.90;;
12770;SDS011;6449;47.666;9.160;2023-06-22T16:04:30;4.20;;;1.73;;
12770;SDS011;6449;47.666;9.160;2023-06-22T16:09:24;5.18;;;1.90;;
12770;SDS011;6449;47.666;9.160;2023-06-22T16:14:18;4.25;;;2.60;;
12770;SDS011;6449;47.666;9.160;2023-06-22T16:19:12;6.25;;;2.35;;
12770;SDS011;6449;47.666;9.160;2023-06-22T16:24:06;4.85;;;2.13;;
12770;SDS011;6449;47.666;9.160;2023-06-22T16:29:00;2.60;;;2.08;;
12770;SDS011;6449;47.666;9.160;2023-06-22T16:33:54;4.03;;;2.47;;
12770;SDS011;6449;47.666;9.160;2023-06-22T16:38:48;2.50;;;1.83;;
12770;SDS011;6449;47.666;9.160;2023-06-22T16:43:42;4.07;;;2.38;;
12770;SDS011;6449;47.666;9.160;2023-06-22T16:48:35;1.92;;;1.67;;
12770;SDS011;6449;47.666;9.160;2023-06-22T16:53:30;3.10;;;2.10;;
12770;SDS011;6449;47.666;9.160;2023-06-22T16:58:26;4.45;;;2.08;;
12770;SDS011;6449;47.666;9.160;2023-06-22T17:03:22;5.22;;;1.70;;
12770;SDS011;6449;47.666;9.160;2023-06-22T17:08:20;8.10;;;2.50;;
12770;SDS011;6449;47.666;9.160;2023-06-22T17:13:15;3.95;;;2.47;;
12770;SDS011;6449;47.666;9.160;2023-06-22T17:18:09;4.25;;;2.42;;
12770;SDS011;6449;47.666;9.160;2023-06-22T17:23:05;5.35;;;2.45;;
12770;SDS011;6449;47.666;9.160;2023-06-22T17:27:58;2.95;;;2.28;;
12770;SDS011;6449;47.666;9.160;2023-06-22T17:32:54;2.40;;;1.38;;
12770;SDS011;6449;47.666;9.160;2023-06-22T17:37:50;2.88;;;2.05;;
12770;SDS011;6449;47.666;9.160;2023-06-22T17:42:45;3.22;;;1.90;;
12770;SDS011;6449;47.666;9.160;2023-06-22T17:47:39;2.70;;;2.05;;
12770;SDS011;6449;47.666;9.160;2023-06-22T17:52:33;3.63;;;2.05;;
12770;SDS011;6449;47.666;9.160;2023-06-22T17:57:27;5.43;;;2.40;;
12770;SDS011;6449;47.666;9.160;2023-06-22T18:02:28;5.55;;;2.35;;
12770;SDS011;6449;47.666;9.160;2023-06-22T18:07:21;6.20;;;2.28;;
12770;SDS011;6449;47.666;9.160;2023-06-22T18:12:17;3.90;;;2.08;;
12770;SDS011;6449;47.666;9.160;2023-06-22T18:17:12;3.92;;;1.70;;
12770;SDS011;6449;47.666;9.160;2023-06-22T18:22:08;4.15;;;1.75;;
12770;SDS011;6449;47.666;9.160;2023-06-22T18:27:01;6.95;;;2.35;;
12770;SDS011;6449;47.666;9.160;2023-06-22T18:31:58;4.75;;;2.25;;
12770;SDS011;6449;47.666;9.160;2023-06-22T18:36:56;5.38;;;2.00;;
12770;SDS011;6449;47.666;9.160;2023-06-22T18:41:53;3.45;;;2.03;;
12770;SDS011;6449;47.666;9.160;2023-06-22T18:46:49;2.75;;;1.80;;
12770;SDS011;6449;47.666;9.160;2023-06-22T18:51:51;3.60;;;1.45;;
12770;SDS011;6449;47.666;9.160;2023-06-22T18:56:53;2.78;;;1.20;;
12770;SDS011;6449;47.666;9.160;2023-06-22T19:01:54;2.70;;;1.00;;
12770;SDS011;6449;47.666;9.160;2023-06-22T19:06:56;1.85;;;1.00;;
12770;SDS011;6449;47.666;9.160;2023-06-22T19:11:50;1.35;;;0.80;;
12770;SDS011;6449;47.666;9.160;2023-06-22T19:17:18;1.75;;;0.52;;
12770;SDS011;6449;47.666;9.160;2023-06-22T19:22:13;1.80;;;0.90;;
12770;SDS011;6449;47.666;9.160;2023-06-22T19:27:07;3.80;;;0.90;;
12770;SDS011;6449;47.666;9.160;2023-06-22T19:32:01;2.70;;;0.70;;
12770;SDS011;6449;47.666;9.160;2023-06-22T19:36:59;1.27;;;0.70;;
12770;SDS011;6449;47.666;9.160;2023-06-22T19:41:53;3.90;;;0.70;;
12770;SDS011;6449;47.666;9.160;2023-06-22T19:46:47;1.50;;;1.15;;
12770;SDS011;6449;47.666;9.160;2023-06-22T19:51:41;0.93;;;0.65;;
12770;SDS011;6449;47.666;9.160;2023-06-22T19:56:35;0.77;;;0.57;;
12770;SDS011;6449;47.666;9.160;2023-06-22T20:01:30;0.73;;;0.65;;
12770;SDS011;6449;47.666;9.160;2023-06-22T20:06:23;1.05;;;0.77;;
12770;SDS011;6449;47.666;9.160;2023-06-22T20:11:23;0.90;;;0.68;;
12770;SDS011;6449;47.666;9.160;2023-06-22T20:16:18;3.05;;;0.80;;
12770;SDS011;6449;47.666;9.160;2023-06-22T20:21:15;1.63;;;0.63;;
12770;SDS011;6449;47.666;9.160;2023-06-22T20:26:10;1.17;;;0.90;;
12770;SDS011;6449;47.666;9.160;2023-06-22T20:31:08;2.13;;;0.80;;
12770;SDS011;6449;47.666;9.160;2023-06-22T20:36:05;1.02;;;0.80;;
12770;SDS011;6449;47.666;9.160;2023-06-22T20:41:01;0.90;;;0.70;;
12770;SDS011;6449;47.666;9.160;2023-06-22T20:45:57;6.30;;;1.83;;
12770;SDS011;6449;47.666;9.160;2023-06-22T20:50:51;0.60;;;0.50;;
12770;SDS011;6449;47.666;9.160;2023-06-22T20:55:48;1.58;;;0.75;;
12770;SDS011;6449;47.666;9.160;2023-06-22T21:00:44;1.40;;;0.73;;
12770;SDS011;6449;47.666;9.160;2023-06-22T21:05:38;0.98;;;0.60;;
12770;SDS011;6449;47.666;9.160;2023-06-22T21:10:32;0.77;;;0.60;;
12770;SDS011;6449;47.666;9.160;2023-06-22T21:15:25;0.60;;;0.55;;
12770;SDS011;6449;47.666;9.160;2023-06-22T21:20:20;2.15;;;0.70;;
12770;SDS011;6449;47.666;9.160;2023-06-22T21:25:14;0.47;;;0.43;;
12770;SDS011;6449;47.666;9.160;2023-06-22T21:30:08;1.83;;;0.50;;
12770;SDS011;6449;47.666;9.160;2023-06-22T21:35:04;0.95;;;0.60;;
12770;SDS011;6449;47.666;9.160;2023-06-22T21:40:02;1.67;;;0.80;;
12770;SDS011;6449;47.666;9.160;2023-06-22T21:44:56;0.93;;;0.60;;
12770;SDS011;6449;47.666;9.160;2023-06-22T21:49:49;0.73;;;0.50;;
12770;SDS011;6449;47.666;9.160;2023-06-22T21:54:43;0.90;;;0.73;;
12770;SDS011;6449;47.666;9.160;2023-06-22T21:59:38;1.60;;;0.77;;
12770;SDS011;6449;47.666;9.160;2023-06-22T22:04:31;1.33;;;0.55;;
12770;SDS011;6449;47.666;9.160;2023-06-22T22:09:24;0.77;;;0.77;;
12770;SDS011;6449;47.666;9.160;2023-06-22T22:14:18;0.65;;;0.65;;
12770;SDS011;6449;47.666;9.160;2023-06-22T22:19:12;1.05;;;0.77;;
12770;SDS011;6449;47.666;9.160;2023-06-22T22:24:06;1.17;;;0.75;;
12770;SDS011;6449;47.666;9.160;2023-06-22T22:29:00;0.93;;;0.77;;
12770;SDS011;6449;47.666;9.160;2023-06-22T22:33:53;0.70;;;0.70;;
12770;SDS011;6449;47.666;9.160;2023-06-22T22:38:48;1.58;;;0.50;;
12770;SDS011;6449;47.666;9.160;2023-06-22T22:43:41;1.20;;;0.80;;
12770;SDS011;6449;47.666;9.160;2023-06-22T22:48:34;0.65;;;0.65;;
12770;SDS011;6449;47.666;9.160;2023-06-22T22:53:28;0.85;;;0.65;;
12770;SDS011;6449;47.666;9.160;2023-06-22T22:58:23;0.85;;;0.60;;
12770;SDS011;6449;47.666;9.160;2023-06-22T23:03:17;1.08;;;0.70;;
12770;SDS011;6449;47.666;9.160;2023-06-22T23:08:10;0.70;;;0.50;;
12770;SDS011;6449;47.666;9.160;2023-06-22T23:13:04;1.10;;;0.70;;
12770;SDS011;6449;47.666;9.160;2023-06-22T23:17:59;0.80;;;0.77;;
12770;SDS011;6449;47.666;9.160;2023-06-22T23:22:54;0.55;;;0.50;;
12770;SDS011;6449;47.666;9.160;2023-06-22T23:27:49;0.98;;;0.60;;
12770;SDS011;6449;47.666;9.160;2023-06-22T23:32:43;1.15;;;0.65;;
12770;SDS011;6449;47.666;9.160;2023-06-22T23:37:41;0.90;;;0.70;;
12770;SDS011;6449;47.666;9.160;2023-06-22T23:42:37;1.90;;;1.10;;
12770;SDS011;6449;47.666;9.160;2023-06-22T23:47:30;1.13;;;0.85;;
12770;SDS011;6449;47.666;9.160;2023-06-22T23:52:23;0.93;;;0.52;;
12770;SDS011;6449;47.666;9.160;2023-06-22T23:57:18;2.97;;;0.93;;
